Aviation Digital Data Service (ADDS)

Output produced by METARs form (0016 UTC 20 April 2019)
found at http://www.aviationweather.gov/metar/data/
 
Forecast for: KPIH (POCATELLO , ID, US)
Text: KPIH 192323Z 2000/2024 18011KT P6SM SKC
Forecast period: 0000 to 0400 UTC 20 April 2019
Forecast type: FROM: standard forecast or significant change
Winds: from the S (180 degrees) at 13 MPH (11 knots; 5.7 m/s)
Visibility: 6 or more miles 10+ km)
Clouds: clear skies
Weather: no significant weather forecast for this period
Text: FM200400 17009KT P6SM FEW100 SCT210
Forecast period: 0400 to 1900 UTC 20 April 2019
Forecast type: FROM: standard forecast or significant change
Winds: from the S (170 degrees) at 10 MPH (9 knots; 4.6 m/s)
Visibility: 6 or more miles 10+ km)
Ceiling: at least 12,000 feet AGL
Clouds: few clouds at 10000 feet AGL
scattered clouds at 21000 feet AGL
Weather: no significant weather forecast for this period
Text: FM201900 24011KT P6SM VCTS BKN080CB BKN120
Forecast period: 1900 UTC 20 April 2019 to 0000 UTC 21 April 2019
Forecast type: FROM: standard forecast or significant change
Winds: from the WSW (240 degrees) at 13 MPH (11 knots; 5.7 m/s)
Visibility: 6 or more miles 10+ km)
Ceiling: 8000 feet AGL
Clouds: broken clouds at 8000 feet AGL
broken clouds at 12000 feet AGL
Weather: VCTS  (thunderstorm in vicinity)